sensor_id;sensor_type;location;lat;lon;timestamp;P1;durP1;ratioP1;P2;durP2;ratioP2
65764;SDS011;52915;53.718;19.946;2023-03-21T00:03:33;61.00;;;18.90;;
65764;SDS011;52915;53.718;19.946;2023-03-21T00:08:39;54.00;;;20.70;;
65764;SDS011;52915;53.718;19.946;2023-03-21T00:13:43;60.40;;;24.50;;
65764;SDS011;52915;53.718;19.946;2023-03-21T00:18:48;45.20;;;19.30;;
65764;SDS011;52915;53.718;19.946;2023-03-21T00:23:54;39.20;;;14.60;;
65764;SDS011;52915;53.718;19.946;2023-03-21T00:28:58;32.60;;;14.00;;
65764;SDS011;52915;53.718;19.946;2023-03-21T00:34:02;24.30;;;11.10;;
65764;SDS011;52915;53.718;19.946;2023-03-21T00:39:06;25.20;;;11.50;;
65764;SDS011;52915;53.718;19.946;2023-03-21T00:44:11;27.70;;;11.00;;
65764;SDS011;52915;53.718;19.946;2023-03-21T00:49:18;19.90;;;9.00;;
65764;SDS011;52915;53.718;19.946;2023-03-21T00:54:23;21.50;;;11.20;;
65764;SDS011;52915;53.718;19.946;2023-03-21T00:59:28;26.10;;;12.00;;
65764;SDS011;52915;53.718;19.946;2023-03-21T01:04:33;21.50;;;9.60;;
65764;SDS011;52915;53.718;19.946;2023-03-21T01:09:37;24.50;;;10.30;;
65764;SDS011;52915;53.718;19.946;2023-03-21T01:14:41;25.40;;;11.00;;
65764;SDS011;52915;53.718;19.946;2023-03-21T01:19:45;26.10;;;13.20;;
65764;SDS011;52915;53.718;19.946;2023-03-21T01:30:11;19.90;;;9.50;;
65764;SDS011;52915;53.718;19.946;2023-03-21T01:35:24;20.20;;;7.90;;
65764;SDS011;52915;53.718;19.946;2023-03-21T01:40:31;17.80;;;6.90;;
65764;SDS011;52915;53.718;19.946;2023-03-21T01:51:11;22.60;;;11.40;;
65764;SDS011;52915;53.718;19.946;2023-03-21T01:56:29;34.60;;;14.70;;
65764;SDS011;52915;53.718;19.946;2023-03-21T02:01:37;19.20;;;9.10;;
65764;SDS011;52915;53.718;19.946;2023-03-21T02:06:57;23.90;;;10.90;;
65764;SDS011;52915;53.718;19.946;2023-03-21T02:12:07;21.70;;;11.10;;
65764;SDS011;52915;53.718;19.946;2023-03-21T02:28:44;21.20;;;9.80;;
65764;SDS011;52915;53.718;19.946;2023-03-21T02:40:00;30.70;;;10.70;;
65764;SDS011;52915;53.718;19.946;2023-03-21T02:45:29;20.50;;;8.30;;
65764;SDS011;52915;53.718;19.946;2023-03-21T02:50:56;20.10;;;8.30;;
65764;SDS011;52915;53.718;19.946;2023-03-21T02:56:03;48.70;;;15.20;;
65764;SDS011;52915;53.718;19.946;2023-03-21T03:01:13;45.50;;;13.70;;
65764;SDS011;52915;53.718;19.946;2023-03-21T03:06:37;33.30;;;11.70;;
65764;SDS011;52915;53.718;19.946;2023-03-21T03:12:06;25.80;;;10.00;;
65764;SDS011;52915;53.718;19.946;2023-03-21T03:24:10;27.40;;;9.10;;
65764;SDS011;52915;53.718;19.946;2023-03-21T03:29:07;27.80;;;12.40;;
65764;SDS011;52915;53.718;19.946;2023-03-21T03:34:18;42.40;;;15.60;;
65764;SDS011;52915;53.718;19.946;2023-03-21T03:39:38;31.70;;;11.10;;
65764;SDS011;52915;53.718;19.946;2023-03-21T03:44:46;26.80;;;10.00;;
65764;SDS011;52915;53.718;19.946;2023-03-21T03:50:13;28.50;;;10.20;;
65764;SDS011;52915;53.718;19.946;2023-03-21T03:55:29;50.80;;;15.00;;
65764;SDS011;52915;53.718;19.946;2023-03-21T04:00:37;112.70;;;25.90;;
65764;SDS011;52915;53.718;19.946;2023-03-21T04:05:41;100.00;;;23.80;;
65764;SDS011;52915;53.718;19.946;2023-03-21T04:10:48;57.50;;;19.20;;
65764;SDS011;52915;53.718;19.946;2023-03-21T04:15:52;52.00;;;15.70;;
65764;SDS011;52915;53.718;19.946;2023-03-21T04:20:56;62.30;;;20.10;;
65764;SDS011;52915;53.718;19.946;2023-03-21T04:26:01;86.40;;;23.30;;
65764;SDS011;52915;53.718;19.946;2023-03-21T04:31:07;71.10;;;24.90;;
65764;SDS011;52915;53.718;19.946;2023-03-21T04:36:28;48.60;;;19.20;;
65764;SDS011;52915;53.718;19.946;2023-03-21T04:41:43;60.30;;;18.70;;
65764;SDS011;52915;53.718;19.946;2023-03-21T04:46:48;48.00;;;14.00;;
65764;SDS011;52915;53.718;19.946;2023-03-21T04:51:52;66.00;;;18.50;;
65764;SDS011;52915;53.718;19.946;2023-03-21T04:56:57;48.50;;;15.40;;
65764;SDS011;52915;53.718;19.946;2023-03-21T05:02:01;31.50;;;10.90;;
65764;SDS011;52915;53.718;19.946;2023-03-21T05:07:06;26.80;;;11.30;;
65764;SDS011;52915;53.718;19.946;2023-03-21T05:12:10;133.70;;;36.50;;
65764;SDS011;52915;53.718;19.946;2023-03-21T05:17:14;45.30;;;17.40;;
65764;SDS011;52915;53.718;19.946;2023-03-21T05:22:27;65.20;;;19.00;;
65764;SDS011;52915;53.718;19.946;2023-03-21T05:27:31;90.10;;;27.90;;
65764;SDS011;52915;53.718;19.946;2023-03-21T05:32:38;51.30;;;17.90;;
65764;SDS011;52915;53.718;19.946;2023-03-21T05:37:42;29.90;;;12.30;;
65764;SDS011;52915;53.718;19.946;2023-03-21T05:42:46;28.60;;;11.60;;
65764;SDS011;52915;53.718;19.946;2023-03-21T05:47:53;32.30;;;12.40;;
65764;SDS011;52915;53.718;19.946;2023-03-21T05:53:00;36.70;;;14.10;;
65764;SDS011;52915;53.718;19.946;2023-03-21T05:58:04;29.50;;;13.90;;
65764;SDS011;52915;53.718;19.946;2023-03-21T06:03:08;30.30;;;14.80;;
65764;SDS011;52915;53.718;19.946;2023-03-21T06:08:12;41.00;;;18.00;;
65764;SDS011;52915;53.718;19.946;2023-03-21T06:13:16;28.40;;;12.80;;
65764;SDS011;52915;53.718;19.946;2023-03-21T06:18:19;34.80;;;15.50;;
65764;SDS011;52915;53.718;19.946;2023-03-21T06:23:23;37.40;;;16.20;;
65764;SDS011;52915;53.718;19.946;2023-03-21T06:28:28;36.90;;;16.00;;
65764;SDS011;52915;53.718;19.946;2023-03-21T06:33:33;61.50;;;28.40;;
65764;SDS011;52915;53.718;19.946;2023-03-21T06:38:37;51.70;;;21.10;;
65764;SDS011;52915;53.718;19.946;2023-03-21T06:43:41;76.70;;;30.90;;
65764;SDS011;52915;53.718;19.946;2023-03-21T06:48:47;73.20;;;29.20;;
65764;SDS011;52915;53.718;19.946;2023-03-21T06:53:52;48.30;;;20.60;;
65764;SDS011;52915;53.718;19.946;2023-03-21T06:58:57;35.60;;;15.90;;
65764;SDS011;52915;53.718;19.946;2023-03-21T07:04:00;35.50;;;15.00;;
65764;SDS011;52915;53.718;19.946;2023-03-21T07:09:04;34.50;;;14.40;;
65764;SDS011;52915;53.718;19.946;2023-03-21T07:14:11;38.60;;;16.70;;
65764;SDS011;52915;53.718;19.946;2023-03-21T07:19:15;35.70;;;15.50;;
65764;SDS011;52915;53.718;19.946;2023-03-21T07:24:19;50.20;;;19.40;;
65764;SDS011;52915;53.718;19.946;2023-03-21T07:29:23;55.80;;;21.30;;
65764;SDS011;52915;53.718;19.946;2023-03-21T07:34:27;59.70;;;22.10;;
65764;SDS011;52915;53.718;19.946;2023-03-21T07:39:35;86.00;;;30.90;;
65764;SDS011;52915;53.718;19.946;2023-03-21T07:44:39;46.90;;;18.10;;
65764;SDS011;52915;53.718;19.946;2023-03-21T07:49:45;80.20;;;20.90;;
65764;SDS011;52915;53.718;19.946;2023-03-21T07:54:49;46.90;;;16.90;;
65764;SDS011;52915;53.718;19.946;2023-03-21T07:59:52;31.90;;;14.00;;
65764;SDS011;52915;53.718;19.946;2023-03-21T08:04:56;33.00;;;15.00;;
65764;SDS011;52915;53.718;19.946;2023-03-21T08:10:01;32.80;;;13.50;;
65764;SDS011;52915;53.718;19.946;2023-03-21T08:15:06;26.70;;;11.20;;
65764;SDS011;52915;53.718;19.946;2023-03-21T08:20:16;22.40;;;9.30;;
65764;SDS011;52915;53.718;19.946;2023-03-21T08:25:23;26.30;;;11.00;;
65764;SDS011;52915;53.718;19.946;2023-03-21T08:30:28;27.30;;;9.00;;
65764;SDS011;52915;53.718;19.946;2023-03-21T08:35:33;24.20;;;10.30;;
65764;SDS011;52915;53.718;19.946;2023-03-21T08:40:40;22.00;;;9.00;;
65764;SDS011;52915;53.718;19.946;2023-03-21T08:45:44;26.80;;;10.30;;
65764;SDS011;52915;53.718;19.946;2023-03-21T08:50:48;25.50;;;9.20;;
65764;SDS011;52915;53.718;19.946;2023-03-21T08:55:52;16.60;;;8.40;;
65764;SDS011;52915;53.718;19.946;2023-03-21T09:00:56;18.70;;;7.50;;
65764;SDS011;52915;53.718;19.946;2023-03-21T09:06:00;17.10;;;9.10;;
65764;SDS011;52915;53.718;19.946;2023-03-21T09:11:05;20.80;;;8.50;;
65764;SDS011;52915;53.718;19.946;2023-03-21T09:16:10;18.80;;;9.70;;
65764;SDS011;52915;53.718;19.946;2023-03-21T09:21:16;19.20;;;8.40;;
65764;SDS011;52915;53.718;19.946;2023-03-21T09:26:23;20.90;;;11.20;;
65764;SDS011;52915;53.718;19.946;2023-03-21T09:31:28;28.20;;;13.10;;
65764;SDS011;52915;53.718;19.946;2023-03-21T09:36:33;32.50;;;11.60;;
65764;SDS011;52915;53.718;19.946;2023-03-21T09:46:50;23.30;;;11.10;;
65764;SDS011;52915;53.718;19.946;2023-03-21T09:52:32;16.60;;;7.90;;
65764;SDS011;52915;53.718;19.946;2023-03-21T09:58:34;20.20;;;10.30;;
65764;SDS011;52915;53.718;19.946;2023-03-21T10:03:43;14.40;;;7.40;;
65764;SDS011;52915;53.718;19.946;2023-03-21T10:08:47;18.00;;;9.20;;
65764;SDS011;52915;53.718;19.946;2023-03-21T10:13:58;20.00;;;9.70;;
65764;SDS011;52915;53.718;19.946;2023-03-21T10:19:15;34.40;;;13.40;;
65764;SDS011;52915;53.718;19.946;2023-03-21T10:24:24;20.50;;;10.90;;
65764;SDS011;52915;53.718;19.946;2023-03-21T10:29:39;44.00;;;19.30;;
65764;SDS011;52915;53.718;19.946;2023-03-21T10:34:52;21.60;;;11.30;;
65764;SDS011;52915;53.718;19.946;2023-03-21T10:40:05;20.10;;;8.70;;
65764;SDS011;52915;53.718;19.946;2023-03-21T10:45:17;24.90;;;12.50;;
65764;SDS011;52915;53.718;19.946;2023-03-21T10:50:28;19.50;;;10.10;;
65764;SDS011;52915;53.718;19.946;2023-03-21T10:55:33;20.60;;;11.40;;
65764;SDS011;52915;53.718;19.946;2023-03-21T11:00:42;26.20;;;11.50;;
65764;SDS011;52915;53.718;19.946;2023-03-21T11:05:52;32.30;;;13.60;;
65764;SDS011;52915;53.718;19.946;2023-03-21T11:11:05;22.80;;;11.80;;
65764;SDS011;52915;53.718;19.946;2023-03-21T11:16:21;46.40;;;18.40;;
65764;SDS011;52915;53.718;19.946;2023-03-21T11:21:36;18.90;;;10.30;;
65764;SDS011;52915;53.718;19.946;2023-03-21T11:26:43;21.60;;;11.40;;
65764;SDS011;52915;53.718;19.946;2023-03-21T11:31:50;13.70;;;7.70;;
65764;SDS011;52915;53.718;19.946;2023-03-21T11:36:59;17.10;;;8.90;;
65764;SDS011;52915;53.718;19.946;2023-03-21T11:42:25;21.70;;;8.90;;
65764;SDS011;52915;53.718;19.946;2023-03-21T11:47:33;14.20;;;8.10;;
65764;SDS011;52915;53.718;19.946;2023-03-21T11:52:40;16.30;;;8.20;;
65764;SDS011;52915;53.718;19.946;2023-03-21T11:58:12;9.80;;;5.40;;
65764;SDS011;52915;53.718;19.946;2023-03-21T12:03:53;15.40;;;8.90;;
65764;SDS011;52915;53.718;19.946;2023-03-21T12:09:25;20.50;;;8.20;;
65764;SDS011;52915;53.718;19.946;2023-03-21T12:20:38;18.70;;;8.30;;
65764;SDS011;52915;53.718;19.946;2023-03-21T13:00:37;25.50;;;12.00;;
65764;SDS011;52915;53.718;19.946;2023-03-21T13:06:02;22.20;;;13.50;;
65764;SDS011;52915;53.718;19.946;2023-03-21T13:11:19;25.20;;;10.20;;
65764;SDS011;52915;53.718;19.946;2023-03-21T13:32:04;35.50;;;16.70;;
65764;SDS011;52915;53.718;19.946;2023-03-21T13:37:15;108.00;;;46.70;;
65764;SDS011;52915;53.718;19.946;2023-03-21T13:42:24;99.80;;;44.80;;
65764;SDS011;52915;53.718;19.946;2023-03-21T13:47:49;37.10;;;18.40;;
65764;SDS011;52915;53.718;19.946;2023-03-21T13:58:30;20.80;;;10.90;;
65764;SDS011;52915;53.718;19.946;2023-03-21T14:03:34;19.50;;;10.20;;
65764;SDS011;52915;53.718;19.946;2023-03-21T14:08:45;17.70;;;10.10;;
65764;SDS011;52915;53.718;19.946;2023-03-21T14:13:52;15.40;;;8.80;;
65764;SDS011;52915;53.718;19.946;2023-03-21T14:19:00;19.20;;;10.00;;
65764;SDS011;52915;53.718;19.946;2023-03-21T14:24:13;55.90;;;26.70;;
65764;SDS011;52915;53.718;19.946;2023-03-21T14:29:29;36.40;;;19.90;;
65764;SDS011;52915;53.718;19.946;2023-03-21T14:34:36;41.70;;;19.50;;
65764;SDS011;52915;53.718;19.946;2023-03-21T14:39:40;19.00;;;10.60;;
65764;SDS011;52915;53.718;19.946;2023-03-21T14:44:50;15.60;;;7.70;;
65764;SDS011;52915;53.718;19.946;2023-03-21T14:49:58;18.00;;;8.10;;
65764;SDS011;52915;53.718;19.946;2023-03-21T14:55:13;20.70;;;13.00;;
65764;SDS011;52915;53.718;19.946;2023-03-21T15:00:26;21.40;;;8.40;;
65764;SDS011;52915;53.718;19.946;2023-03-21T15:05:34;64.80;;;30.50;;
65764;SDS011;52915;53.718;19.946;2023-03-21T15:10:40;42.90;;;15.80;;
65764;SDS011;52915;53.718;19.946;2023-03-21T15:15:46;30.70;;;13.80;;
65764;SDS011;52915;53.718;19.946;2023-03-21T15:20:51;45.70;;;20.30;;
65764;SDS011;52915;53.718;19.946;2023-03-21T15:26:03;274.00;;;128.20;;
65764;SDS011;52915;53.718;19.946;2023-03-21T15:31:17;89.70;;;41.50;;
65764;SDS011;52915;53.718;19.946;2023-03-21T15:36:31;295.50;;;174.50;;
65764;SDS011;52915;53.718;19.946;2023-03-21T15:41:39;227.50;;;149.60;;
65764;SDS011;52915;53.718;19.946;2023-03-21T15:46:49;48.50;;;34.00;;
65764;SDS011;52915;53.718;19.946;2023-03-21T15:57:29;55.60;;;38.70;;
65764;SDS011;52915;53.718;19.946;2023-03-21T16:02:43;263.20;;;131.30;;
65764;SDS011;52915;53.718;19.946;2023-03-21T16:07:47;197.00;;;122.20;;
65764;SDS011;52915;53.718;19.946;2023-03-21T16:12:51;323.80;;;181.10;;
65764;SDS011;52915;53.718;19.946;2023-03-21T16:17:58;220.40;;;98.50;;
65764;SDS011;52915;53.718;19.946;2023-03-21T16:23:04;609.90;;;311.60;;
65764;SDS011;52915;53.718;19.946;2023-03-21T16:28:14;310.90;;;116.90;;
65764;SDS011;52915;53.718;19.946;2023-03-21T16:33:19;137.50;;;50.10;;
65764;SDS011;52915;53.718;19.946;2023-03-21T16:38:24;145.70;;;59.90;;
65764;SDS011;52915;53.718;19.946;2023-03-21T16:43:29;171.30;;;70.90;;
65764;SDS011;52915;53.718;19.946;2023-03-21T16:48:33;143.40;;;59.70;;
65764;SDS011;52915;53.718;19.946;2023-03-21T16:53:37;342.40;;;160.40;;
65764;SDS011;52915;53.718;19.946;2023-03-21T16:58:41;383.40;;;190.80;;
65764;SDS011;52915;53.718;19.946;2023-03-21T17:03:46;277.00;;;100.90;;
65764;SDS011;52915;53.718;19.946;2023-03-21T17:08:57;341.80;;;100.10;;
65764;SDS011;52915;53.718;19.946;2023-03-21T17:14:05;203.00;;;64.80;;
65764;SDS011;52915;53.718;19.946;2023-03-21T17:19:13;162.60;;;51.10;;
65764;SDS011;52915;53.718;19.946;2023-03-21T17:24:20;117.40;;;38.90;;
65764;SDS011;52915;53.718;19.946;2023-03-21T17:29:35;110.10;;;39.10;;
65764;SDS011;52915;53.718;19.946;2023-03-21T17:34:43;70.20;;;31.30;;
65764;SDS011;52915;53.718;19.946;2023-03-21T17:39:47;163.10;;;59.80;;
65764;SDS011;52915;53.718;19.946;2023-03-21T17:44:52;111.00;;;43.80;;
65764;SDS011;52915;53.718;19.946;2023-03-21T17:49:56;169.20;;;52.00;;
65764;SDS011;52915;53.718;19.946;2023-03-21T17:55:00;93.30;;;37.40;;
65764;SDS011;52915;53.718;19.946;2023-03-21T18:00:06;63.70;;;26.50;;
65764;SDS011;52915;53.718;19.946;2023-03-21T18:05:17;90.70;;;48.40;;
65764;SDS011;52915;53.718;19.946;2023-03-21T18:10:24;98.40;;;43.70;;
65764;SDS011;52915;53.718;19.946;2023-03-21T18:15:30;101.80;;;45.60;;
65764;SDS011;52915;53.718;19.946;2023-03-21T18:20:34;105.20;;;40.20;;
65764;SDS011;52915;53.718;19.946;2023-03-21T18:25:54;153.10;;;51.70;;
65764;SDS011;52915;53.718;19.946;2023-03-21T18:30:58;148.50;;;45.90;;
65764;SDS011;52915;53.718;19.946;2023-03-21T18:36:19;142.20;;;45.20;;
65764;SDS011;52915;53.718;19.946;2023-03-21T18:41:31;383.10;;;119.50;;
65764;SDS011;52915;53.718;19.946;2023-03-21T18:46:35;180.30;;;64.60;;
65764;SDS011;52915;53.718;19.946;2023-03-21T18:51:40;158.30;;;62.80;;
65764;SDS011;52915;53.718;19.946;2023-03-21T18:56:50;163.50;;;62.60;;
65764;SDS011;52915;53.718;19.946;2023-03-21T19:02:15;134.10;;;53.20;;
65764;SDS011;52915;53.718;19.946;2023-03-21T19:07:19;90.90;;;40.90;;
65764;SDS011;52915;53.718;19.946;2023-03-21T19:12:25;118.00;;;49.20;;
65764;SDS011;52915;53.718;19.946;2023-03-21T19:17:31;88.10;;;39.80;;
65764;SDS011;52915;53.718;19.946;2023-03-21T19:22:55;111.10;;;44.10;;
65764;SDS011;52915;53.718;19.946;2023-03-21T19:27:59;185.00;;;65.30;;
65764;SDS011;52915;53.718;19.946;2023-03-21T19:33:05;302.50;;;87.50;;
65764;SDS011;52915;53.718;19.946;2023-03-21T19:38:10;287.00;;;86.60;;
65764;SDS011;52915;53.718;19.946;2023-03-21T19:43:15;282.50;;;80.10;;
65764;SDS011;52915;53.718;19.946;2023-03-21T19:48:37;226.30;;;68.90;;
65764;SDS011;52915;53.718;19.946;2023-03-21T19:53:43;203.20;;;60.50;;
65764;SDS011;52915;53.718;19.946;2023-03-21T19:58:48;230.10;;;71.60;;
65764;SDS011;52915;53.718;19.946;2023-03-21T20:03:52;212.00;;;73.60;;
65764;SDS011;52915;53.718;19.946;2023-03-21T20:08:56;166.10;;;59.00;;
65764;SDS011;52915;53.718;19.946;2023-03-21T20:14:20;153.90;;;62.00;;
65764;SDS011;52915;53.718;19.946;2023-03-21T20:19:24;162.10;;;53.50;;
65764;SDS011;52915;53.718;19.946;2023-03-21T20:24:28;212.40;;;74.90;;
65764;SDS011;52915;53.718;19.946;2023-03-21T20:29:32;180.60;;;68.80;;
65764;SDS011;52915;53.718;19.946;2023-03-21T20:35:00;189.90;;;67.90;;
65764;SDS011;52915;53.718;19.946;2023-03-21T20:40:21;240.70;;;95.50;;
65764;SDS011;52915;53.718;19.946;2023-03-21T20:45:25;176.30;;;62.80;;
65764;SDS011;52915;53.718;19.946;2023-03-21T20:50:29;195.50;;;64.10;;
65764;SDS011;52915;53.718;19.946;2023-03-21T20:55:35;244.80;;;71.50;;
65764;SDS011;52915;53.718;19.946;2023-03-21T21:00:39;174.80;;;71.20;;
65764;SDS011;52915;53.718;19.946;2023-03-21T21:05:45;431.90;;;133.90;;
65764;SDS011;52915;53.718;19.946;2023-03-21T21:10:50;239.30;;;73.50;;
65764;SDS011;52915;53.718;19.946;2023-03-21T21:16:14;136.20;;;46.70;;
65764;SDS011;52915;53.718;19.946;2023-03-21T21:21:19;140.10;;;51.90;;
65764;SDS011;52915;53.718;19.946;2023-03-21T21:26:23;202.00;;;69.80;;
65764;SDS011;52915;53.718;19.946;2023-03-21T21:31:27;154.50;;;55.60;;
65764;SDS011;52915;53.718;19.946;2023-03-21T21:36:30;138.20;;;61.40;;
65764;SDS011;52915;53.718;19.946;2023-03-21T21:41:34;109.90;;;47.80;;
65764;SDS011;52915;53.718;19.946;2023-03-21T21:46:38;82.50;;;35.10;;
65764;SDS011;52915;53.718;19.946;2023-03-21T21:51:42;115.60;;;47.10;;
65764;SDS011;52915;53.718;19.946;2023-03-21T21:56:49;94.10;;;38.70;;
65764;SDS011;52915;53.718;19.946;2023-03-21T22:01:56;109.90;;;46.00;;
65764;SDS011;52915;53.718;19.946;2023-03-21T22:07:03;92.90;;;37.30;;
65764;SDS011;52915;53.718;19.946;2023-03-21T22:12:08;79.20;;;29.80;;
65764;SDS011;52915;53.718;19.946;2023-03-21T22:17:12;94.60;;;42.30;;
65764;SDS011;52915;53.718;19.946;2023-03-21T22:22:16;92.50;;;36.30;;
65764;SDS011;52915;53.718;19.946;2023-03-21T22:27:20;75.70;;;35.20;;
65764;SDS011;52915;53.718;19.946;2023-03-21T22:32:26;82.80;;;35.90;;
65764;SDS011;52915;53.718;19.946;2023-03-21T22:37:31;81.20;;;34.90;;
65764;SDS011;52915;53.718;19.946;2023-03-21T22:42:37;82.90;;;32.20;;
65764;SDS011;52915;53.718;19.946;2023-03-21T22:47:42;99.80;;;42.10;;
65764;SDS011;52915;53.718;19.946;2023-03-21T22:52:46;72.10;;;30.10;;
65764;SDS011;52915;53.718;19.946;2023-03-21T22:57:50;72.90;;;33.10;;
65764;SDS011;52915;53.718;19.946;2023-03-21T23:02:56;78.50;;;38.00;;
65764;SDS011;52915;53.718;19.946;2023-03-21T23:08:03;65.00;;;29.40;;
65764;SDS011;52915;53.718;19.946;2023-03-21T23:13:10;63.60;;;30.30;;
65764;SDS011;52915;53.718;19.946;2023-03-21T23:18:17;70.50;;;32.70;;
65764;SDS011;52915;53.718;19.946;2023-03-21T23:23:24;67.90;;;31.80;;
65764;SDS011;52915;53.718;19.946;2023-03-21T23:28:30;71.50;;;32.10;;
65764;SDS011;52915;53.718;19.946;2023-03-21T23:33:36;67.00;;;32.80;;
65764;SDS011;52915;53.718;19.946;2023-03-21T23:38:44;74.30;;;32.50;;
65764;SDS011;52915;53.718;19.946;2023-03-21T23:43:53;73.30;;;30.60;;
65764;SDS011;52915;53.718;19.946;2023-03-21T23:49:01;71.80;;;29.20;;
65764;SDS011;52915;53.718;19.946;2023-03-21T23:54:08;63.70;;;28.30;;
65764;SDS011;52915;53.718;19.946;2023-03-21T23:59:16;66.30;;;30.10;;
